createdAt,value
2023-01-07T00:01:40.902Z,59.77
2023-01-07T00:04:11.252Z,59.82
2023-01-07T00:06:40.044Z,59.76
2023-01-07T00:09:11.512Z,59.48
2023-01-07T00:11:40.725Z,59.78
2023-01-07T00:14:09.413Z,59.82
2023-01-07T00:16:37.312Z,59.56
2023-01-07T00:19:05.855Z,59.71
2023-01-07T00:21:36.020Z,59.73
2023-01-07T00:24:05.445Z,59.69
2023-01-07T00:26:35.239Z,59.61
2023-01-07T00:29:02.147Z,59.58
2023-01-07T00:31:37.547Z,59.60
2023-01-07T00:34:05.143Z,59.63
2023-01-07T00:36:41.227Z,59.36
2023-01-07T00:39:21.409Z,59.53
2023-01-07T00:42:07.774Z,59.29
2023-01-07T00:44:35.410Z,59.22
2023-01-07T00:47:02.279Z,59.33
2023-01-07T00:49:29.840Z,59.44
2023-01-07T00:51:56.703Z,59.36
2023-01-07T00:54:24.529Z,59.16
2023-01-07T00:56:51.346Z,59.23
2023-01-07T00:59:18.466Z,59.52
2023-01-07T01:01:49.064Z,59.06
2023-01-07T01:04:15.968Z,59.20
2023-01-07T01:06:42.892Z,59.08
2023-01-07T01:09:09.824Z,59.25
2023-01-07T01:11:36.693Z,59.09
2023-01-07T01:14:03.620Z,59.06
2023-01-07T01:16:33.477Z,58.97
2023-01-07T01:19:00.653Z,58.82
2023-01-07T01:21:30.171Z,59.02
2023-01-07T01:23:57.009Z,59.02
2023-01-07T01:26:23.908Z,58.87
2023-01-07T01:28:53.479Z,59.13
2023-01-07T01:31:24.801Z,58.99
2023-01-07T01:33:58.947Z,59.02
2023-01-07T01:36:26.148Z,58.88
2023-01-07T01:38:57.453Z,59.07
2023-01-07T01:41:24.892Z,59.01
2023-01-07T01:43:54.003Z,58.99
2023-01-07T01:46:36.747Z,59.00
2023-01-07T01:49:17.445Z,59.00
2023-01-07T01:51:54.186Z,59.01
2023-01-07T01:54:22.339Z,58.78
2023-01-07T01:56:56.248Z,58.73
2023-01-07T01:59:28.805Z,58.95
2023-01-07T02:01:57.545Z,58.86
2023-01-07T02:04:27.156Z,59.09
2023-01-07T02:07:08.992Z,58.70
2023-01-07T02:09:38.410Z,58.77
2023-01-07T02:12:24.487Z,58.69
2023-01-07T02:15:00.641Z,59.08
2023-01-07T02:17:42.152Z,58.91
2023-01-07T02:20:23.301Z,58.86
2023-01-07T02:23:42.731Z,58.71
2023-01-07T02:26:37.170Z,58.73
2023-01-07T02:29:16.701Z,58.80
2023-01-07T02:32:09.654Z,58.82
2023-01-07T02:35:01.637Z,58.86
2023-01-07T02:37:40.468Z,58.89
2023-01-07T02:40:25.054Z,58.74
2023-01-07T02:43:02.959Z,58.65
2023-01-07T02:45:36.085Z,58.78
2023-01-07T02:48:08.251Z,58.56
2023-01-07T02:50:35.465Z,58.85
2023-01-07T02:53:02.273Z,58.70
2023-01-07T02:55:58.329Z,58.64
2023-01-07T02:59:03.625Z,58.79
2023-01-07T03:01:34.238Z,58.60
2023-01-07T03:04:38.460Z,58.50
2023-01-07T03:07:24.102Z,58.63
2023-01-07T03:10:21.637Z,58.75
2023-01-07T03:13:02.384Z,58.76
2023-01-07T03:16:02.544Z,58.65
2023-01-07T03:18:35.226Z,58.53
2023-01-07T03:21:07.704Z,58.76
2023-01-07T03:23:39.421Z,58.56
2023-01-07T03:26:07.992Z,58.74
2023-01-07T03:28:41.515Z,58.54
2023-01-07T03:31:12.647Z,58.55
2023-01-07T03:33:45.537Z,58.59
2023-01-07T03:36:16.150Z,58.76
2023-01-07T03:38:45.857Z,58.62
2023-01-07T03:41:33.093Z,58.46
2023-01-07T03:44:00.099Z,58.34
2023-01-07T03:46:27.639Z,58.69
2023-01-07T03:48:55.370Z,58.45
2023-01-07T03:51:22.866Z,58.49
2023-01-07T03:53:49.713Z,58.50
2023-01-07T03:56:16.971Z,58.46
2023-01-07T03:58:43.780Z,58.47
2023-01-07T04:01:10.805Z,58.37
2023-01-07T04:03:37.812Z,58.65
2023-01-07T04:06:05.301Z,58.54
2023-01-07T04:08:32.152Z,58.57
2023-01-07T04:10:59.272Z,58.59
2023-01-07T04:13:27.241Z,58.34
2023-01-07T04:15:54.061Z,58.37
2023-01-07T04:18:20.904Z,58.39
2023-01-07T04:20:48.647Z,58.62
2023-01-07T04:23:16.965Z,58.43
2023-01-07T04:25:49.855Z,57.97
2023-01-07T04:28:20.683Z,58.30
2023-01-07T04:30:47.661Z,58.17
2023-01-07T04:33:14.753Z,58.10
2023-01-07T04:35:41.710Z,58.33
2023-01-07T04:38:08.621Z,58.24
2023-01-07T04:40:35.574Z,58.09
2023-01-07T04:43:03.035Z,58.01
2023-01-07T04:45:30.807Z,58.15
2023-01-07T04:47:59.650Z,58.23
2023-01-07T04:50:27.549Z,58.11
2023-01-07T04:52:54.865Z,58.00
2023-01-07T04:55:22.957Z,57.92
2023-01-07T04:57:50.273Z,57.84
2023-01-07T05:00:18.061Z,57.77
2023-01-07T05:02:48.021Z,57.92
2023-01-07T05:05:15.776Z,57.97
2023-01-07T05:07:43.754Z,57.91
2023-01-07T05:10:10.587Z,57.79
2023-01-07T05:12:37.620Z,57.95
2023-01-07T05:15:07.723Z,57.85
2023-01-07T05:17:37.198Z,57.67
2023-01-07T05:20:06.690Z,57.71
2023-01-07T05:22:34.906Z,57.68
2023-01-07T05:25:02.977Z,57.97
2023-01-07T05:27:29.811Z,57.46
2023-01-07T05:29:57.926Z,57.79
2023-01-07T05:32:24.690Z,57.48
2023-01-07T05:34:52.045Z,57.66
2023-01-07T05:37:19.289Z,57.54
2023-01-07T05:39:46.167Z,57.89
2023-01-07T05:42:17.393Z,57.63
2023-01-07T05:44:44.422Z,57.92
2023-01-07T05:47:11.251Z,57.50
2023-01-07T05:49:37.999Z,57.57
2023-01-07T05:52:04.969Z,57.78
2023-01-07T05:54:31.799Z,57.47
2023-01-07T05:56:58.691Z,57.67
2023-01-07T05:59:25.463Z,57.71
2023-01-07T06:01:52.265Z,57.50
2023-01-07T06:04:19.218Z,57.53
2023-01-07T06:06:46.039Z,57.49
2023-01-07T06:09:12.857Z,57.48
2023-01-07T06:11:39.653Z,57.76
2023-01-07T06:14:06.454Z,57.46
2023-01-07T06:16:33.261Z,57.65
2023-01-07T06:19:00.065Z,57.65
2023-01-07T06:21:27.248Z,57.63
2023-01-07T06:23:54.175Z,57.51
2023-01-07T06:26:21.086Z,57.48
2023-01-07T06:28:48.105Z,57.41
2023-01-07T06:31:14.901Z,57.74
2023-01-07T06:33:41.761Z,57.48
2023-01-07T06:36:08.857Z,57.54
2023-01-07T06:38:36.115Z,57.57
2023-01-07T06:41:03.109Z,57.40
2023-01-07T06:43:30.392Z,57.65
2023-01-07T06:45:57.422Z,57.41
2023-01-07T06:48:24.237Z,57.12
2023-01-07T06:50:51.065Z,57.50
2023-01-07T06:53:17.854Z,57.25
2023-01-07T06:55:51.608Z,57.50
2023-01-07T06:58:18.958Z,57.56
2023-01-07T07:00:45.983Z,57.47
2023-01-07T07:03:12.825Z,57.10
2023-01-07T07:05:39.900Z,57.26
2023-01-07T07:08:06.756Z,57.14
2023-01-07T07:10:33.924Z,57.15
2023-01-07T07:13:00.708Z,57.21
2023-01-07T07:15:27.631Z,57.22
2023-01-07T07:17:54.481Z,57.33
2023-01-07T07:20:21.744Z,57.10
2023-01-07T07:22:49.182Z,57.33
2023-01-07T07:25:16.321Z,57.13
2023-01-07T07:27:46.624Z,57.51
2023-01-07T07:30:17.134Z,57.28
2023-01-07T07:32:44.083Z,57.07
2023-01-07T07:35:12.001Z,56.85
2023-01-07T07:37:39.642Z,57.43
2023-01-07T07:40:07.599Z,57.08
2023-01-07T07:43:09.684Z,57.28
2023-01-07T07:45:21.263Z,57.40
2023-01-07T07:47:48.078Z,57.47
2023-01-07T07:50:14.993Z,57.25
2023-01-07T07:52:41.824Z,57.46
2023-01-07T07:55:20.175Z,57.12
2023-01-07T07:57:58.316Z,57.43
2023-01-07T08:00:25.527Z,57.58
2023-01-07T08:02:52.829Z,57.41
2023-01-07T08:05:19.677Z,57.71
2023-01-07T08:07:46.538Z,57.56
2023-01-07T08:10:13.377Z,57.56
2023-01-07T08:12:40.252Z,57.36
2023-01-07T08:15:08.375Z,57.52
2023-01-07T08:17:36.780Z,57.45
2023-01-07T08:20:05.360Z,57.43
2023-01-07T08:22:33.452Z,57.28
2023-01-07T08:25:00.982Z,57.48
2023-01-07T08:27:28.506Z,57.19
2023-01-07T08:29:56.119Z,57.08
2023-01-07T08:32:23.394Z,57.40
2023-01-07T08:34:50.387Z,56.94
2023-01-07T08:37:17.469Z,57.12
2023-01-07T08:39:44.341Z,56.99
2023-01-07T08:42:11.175Z,57.17
2023-01-07T08:44:38.079Z,56.93
2023-01-07T08:47:04.935Z,56.91
2023-01-07T08:49:31.921Z,56.48
2023-01-07T08:51:58.749Z,55.11
2023-01-07T08:54:25.537Z,55.42
2023-01-07T08:56:52.343Z,55.79
2023-01-07T08:59:19.162Z,55.32
2023-01-07T09:01:46.101Z,53.76
2023-01-07T09:04:13.003Z,54.88
2023-01-07T09:06:40.017Z,55.08
2023-01-07T09:09:07.132Z,52.47
2023-01-07T09:11:33.948Z,47.32
2023-01-07T09:14:00.744Z,46.64
2023-01-07T09:16:27.602Z,46.34
2023-01-07T09:18:54.476Z,48.62
